createdAt,value
2022-12-28T00:00:52.951Z,74.38
2022-12-28T00:01:56.386Z,74.19
2022-12-28T00:02:59.313Z,73.79
2022-12-28T00:04:05.956Z,73.24
2022-12-28T00:05:09.368Z,73.38
2022-12-28T00:06:13.514Z,73.37
2022-12-28T00:07:16.059Z,73.67
2022-12-28T00:08:19.459Z,74.33
2022-12-28T00:09:21.754Z,73.72
2022-12-28T00:11:07.716Z,73.77
2022-12-28T00:11:47.393Z,74.96
2022-12-28T00:12:50.710Z,75.29
2022-12-28T00:13:53.004Z,75.14
2022-12-28T00:14:56.528Z,74.47
2022-12-28T00:15:59.164Z,74.58
2022-12-28T00:17:02.964Z,74.32
2022-12-28T00:18:05.361Z,73.97
2022-12-28T00:19:14.251Z,73.94
2022-12-28T00:20:16.835Z,74.23
2022-12-28T00:21:20.268Z,74.97
2022-12-28T00:22:23.019Z,74.14
2022-12-28T00:23:26.877Z,74.27
2022-12-28T00:24:29.240Z,74.57
2022-12-28T00:25:32.622Z,73.63
2022-12-28T00:26:36.226Z,73.95
2022-12-28T00:27:40.023Z,73.25
2022-12-28T00:28:42.286Z,72.66
2022-12-28T00:29:46.018Z,73.50
2022-12-28T00:30:48.649Z,72.86
2022-12-28T00:31:52.057Z,73.24
2022-12-28T00:32:54.499Z,72.90
2022-12-28T00:33:57.963Z,71.85
2022-12-28T00:35:02.640Z,71.98
2022-12-28T00:36:05.449Z,71.34
2022-12-28T00:37:12.935Z,71.23
2022-12-28T00:38:15.788Z,72.85
2022-12-28T00:39:19.310Z,72.64
2022-12-28T00:40:24.261Z,73.29
2022-12-28T00:41:26.855Z,73.26
2022-12-28T00:42:30.346Z,72.94
2022-12-28T00:43:33.053Z,72.95
2022-12-28T00:44:36.424Z,72.69
2022-12-28T00:45:39.304Z,72.40
2022-12-28T00:46:42.920Z,73.11
2022-12-28T00:47:45.429Z,71.92
2022-12-28T00:48:48.874Z,71.78
2022-12-28T00:49:51.230Z,72.58
2022-12-28T00:51:03.293Z,72.91
2022-12-28T00:52:05.846Z,72.71
2022-12-28T00:53:09.262Z,72.42
2022-12-28T00:54:11.640Z,71.96
2022-12-28T00:55:15.012Z,72.18
2022-12-28T00:56:19.223Z,71.61
2022-12-28T00:57:22.593Z,72.12
2022-12-28T00:58:24.869Z,72.86
2022-12-28T00:59:28.727Z,71.51
2022-12-28T01:00:32.039Z,71.60
2022-12-28T01:01:35.690Z,71.62
2022-12-28T01:02:38.426Z,72.26
2022-12-28T01:03:41.908Z,72.51
2022-12-28T01:04:44.258Z,71.63
2022-12-28T01:05:47.631Z,72.33
2022-12-28T01:06:51.530Z,72.01
2022-12-28T01:07:54.956Z,71.97
2022-12-28T01:08:57.247Z,71.79
2022-12-28T01:10:00.677Z,72.44
2022-12-28T01:11:08.424Z,72.52
2022-12-28T01:12:11.862Z,73.38
2022-12-28T01:13:14.495Z,73.26
2022-12-28T01:14:17.955Z,72.92
2022-12-28T01:15:20.768Z,72.76
2022-12-28T01:16:26.672Z,73.04
2022-12-28T01:17:30.062Z,72.44
2022-12-28T01:18:33.390Z,72.62
2022-12-28T01:19:36.533Z,71.92
2022-12-28T01:20:40.990Z,71.77
2022-12-28T01:21:43.231Z,72.25
2022-12-28T01:22:48.042Z,72.08
2022-12-28T01:23:53.552Z,71.58
2022-12-28T01:24:56.916Z,71.53
2022-12-28T01:26:02.181Z,70.47
2022-12-28T01:27:05.683Z,71.60
2022-12-28T01:28:08.127Z,71.05
2022-12-28T01:29:11.602Z,70.62
2022-12-28T01:30:14.729Z,70.42
2022-12-28T01:31:20.308Z,71.33
2022-12-28T01:32:22.790Z,71.64
2022-12-28T01:33:26.142Z,71.76
2022-12-28T01:34:28.449Z,73.09
2022-12-28T01:35:31.823Z,73.10
2022-12-28T01:36:35.171Z,74.31
2022-12-28T01:37:38.400Z,73.40
2022-12-28T01:38:42.932Z,74.02
2022-12-28T01:39:46.213Z,74.30
2022-12-28T01:40:48.616Z,73.98
2022-12-28T01:41:52.045Z,73.49
2022-12-28T01:42:54.355Z,74.62
2022-12-28T01:44:35.009Z,73.54
2022-12-28T01:45:37.480Z,72.65
2022-12-28T01:46:43.900Z,72.86
2022-12-28T01:47:49.558Z,72.51
2022-12-28T01:48:57.741Z,72.70
2022-12-28T01:50:07.128Z,73.06
2022-12-28T01:51:09.432Z,72.34
2022-12-28T01:52:16.803Z,72.16
2022-12-28T01:53:20.905Z,72.00
2022-12-28T01:54:28.468Z,71.83
2022-12-28T01:55:33.762Z,70.94
2022-12-28T01:56:38.058Z,70.44
2022-12-28T01:57:43.829Z,70.72
2022-12-28T01:58:48.103Z,70.71
2022-12-28T01:59:54.906Z,70.07
2022-12-28T02:00:58.890Z,70.91
2022-12-28T02:02:01.728Z,71.27
2022-12-28T02:03:09.056Z,70.60
2022-12-28T02:04:12.079Z,71.15
2022-12-28T02:05:16.864Z,71.18
2022-12-28T02:06:20.438Z,70.56
2022-12-28T02:07:37.425Z,70.80
2022-12-28T02:08:44.072Z,71.22
2022-12-28T02:10:44.412Z,72.06
2022-12-28T02:11:16.247Z,72.29
2022-12-28T02:12:19.802Z,73.25
2022-12-28T02:13:25.139Z,72.68
2022-12-28T02:14:27.749Z,71.60
2022-12-28T02:15:31.290Z,71.53
2022-12-28T02:16:33.902Z,70.50
2022-12-28T02:17:37.627Z,70.69
2022-12-28T02:18:42.985Z,70.98
2022-12-28T02:19:50.393Z,69.45
2022-12-28T02:21:17.739Z,69.97
2022-12-28T02:22:50.338Z,69.34
2022-12-28T02:24:28.966Z,68.59
2022-12-28T02:26:05.020Z,68.13
2022-12-28T02:27:19.594Z,66.80
2022-12-28T02:28:46.009Z,67.08
2022-12-28T02:30:08.973Z,66.68
2022-12-28T02:31:18.007Z,67.52
2022-12-28T02:32:35.198Z,68.12
2022-12-28T02:33:44.615Z,69.13
2022-12-28T02:34:54.742Z,70.04
2022-12-28T02:36:01.296Z,70.76
2022-12-28T02:37:11.777Z,70.22
2022-12-28T02:38:19.866Z,69.63
2022-12-28T02:39:27.510Z,69.80
2022-12-28T02:40:35.757Z,70.21
2022-12-28T02:41:41.408Z,69.65
2022-12-28T02:42:46.717Z,69.98
2022-12-28T02:43:50.767Z,70.42
2022-12-28T02:45:13.059Z,70.02
2022-12-28T02:46:38.695Z,71.19
2022-12-28T02:48:02.056Z,71.01
2022-12-28T02:49:51.520Z,70.93
2022-12-28T02:51:07.050Z,70.22
2022-12-28T02:52:18.703Z,69.04
2022-12-28T02:53:38.695Z,69.44
2022-12-28T02:55:27.937Z,69.22
2022-12-28T02:56:40.515Z,69.34
2022-12-28T02:58:01.640Z,70.85
2022-12-28T02:59:24.250Z,70.25
2022-12-28T03:00:35.325Z,70.36
2022-12-28T03:02:08.925Z,70.00
2022-12-28T03:03:21.861Z,69.89
2022-12-28T03:04:31.028Z,69.66
2022-12-28T03:05:57.998Z,69.66
2022-12-28T03:07:28.101Z,69.03
2022-12-28T03:08:38.717Z,69.30
2022-12-28T03:09:48.135Z,69.16
2022-12-28T03:10:56.417Z,69.55
2022-12-28T03:12:07.617Z,69.25
2022-12-28T03:13:28.708Z,68.97
2022-12-28T03:14:37.610Z,69.04
2022-12-28T03:15:41.585Z,69.39
2022-12-28T03:17:08.823Z,69.37
2022-12-28T03:18:33.956Z,70.65
2022-12-28T03:19:58.399Z,70.97
2022-12-28T03:21:23.654Z,71.05
2022-12-28T03:22:49.157Z,71.66
2022-12-28T03:24:11.529Z,70.68
2022-12-28T03:25:37.869Z,70.70
2022-12-28T03:27:03.817Z,69.86
2022-12-28T03:28:27.830Z,68.69
2022-12-28T03:29:53.085Z,69.87
2022-12-28T03:31:06.936Z,69.96
2022-12-28T03:32:10.308Z,70.18
2022-12-28T03:33:14.541Z,70.85
2022-12-28T03:34:17.622Z,70.44
2022-12-28T03:35:24.883Z,70.08
2022-12-28T03:36:32.138Z,70.39
2022-12-28T03:37:42.173Z,70.46
2022-12-28T03:38:53.420Z,70.25
2022-12-28T03:40:01.696Z,70.77
2022-12-28T03:41:08.304Z,70.28
2022-12-28T03:42:34.906Z,70.77
2022-12-28T03:43:47.214Z,70.43
2022-12-28T03:44:56.842Z,71.01
2022-12-28T03:46:06.091Z,70.75
2022-12-28T03:47:11.465Z,70.68
2022-12-28T03:48:16.528Z,72.12
2022-12-28T03:49:19.547Z,71.14
2022-12-28T03:50:24.375Z,70.68
2022-12-28T03:51:31.247Z,71.49
2022-12-28T03:52:34.941Z,70.80
2022-12-28T03:53:41.487Z,70.38
2022-12-28T03:54:45.755Z,72.63
2022-12-28T03:55:48.187Z,71.35
2022-12-28T03:56:53.361Z,71.45
2022-12-28T03:57:56.872Z,71.95
2022-12-28T03:59:00.541Z,71.82
2022-12-28T04:00:04.095Z,71.77
2022-12-28T04:01:09.306Z,71.29
2022-12-28T04:02:12.068Z,71.59
2022-12-28T04:03:15.715Z,72.28
2022-12-28T04:04:18.383Z,71.85
2022-12-28T04:05:22.294Z,71.33
2022-12-28T04:06:24.815Z,71.60
2022-12-28T04:07:29.487Z,71.97
2022-12-28T04:08:32.972Z,72.21
2022-12-28T04:09:36.237Z,71.84
2022-12-28T04:10:38.978Z,71.22
2022-12-28T04:11:42.808Z,71.57
2022-12-28T04:12:45.543Z,71.29
2022-12-28T04:13:49.067Z,71.90
2022-12-28T04:14:51.459Z,72.23
2022-12-28T04:15:59.879Z,72.31
2022-12-28T04:17:03.664Z,72.20
2022-12-28T04:18:07.001Z,72.02
2022-12-28T04:19:10.520Z,71.38
2022-12-28T04:20:14.098Z,71.05
2022-12-28T04:21:16.674Z,72.04
2022-12-28T04:22:19.962Z,71.18
2022-12-28T04:23:22.417Z,72.26
2022-12-28T04:24:26.914Z,72.28
2022-12-28T04:25:29.280Z,72.60
2022-12-28T04:26:32.734Z,73.15
2022-12-28T04:27:35.560Z,71.98
2022-12-28T04:28:39.511Z,71.74
2022-12-28T04:29:41.827Z,72.32
2022-12-28T04:30:46.721Z,72.15
2022-12-28T04:31:50.116Z,71.96
2022-12-28T04:32:55.759Z,72.01
2022-12-28T04:33:59.509Z,72.47
2022-12-28T04:35:02.002Z,72.76
2022-12-28T04:36:07.124Z,72.45
2022-12-28T04:37:09.531Z,72.58
2022-12-28T04:38:12.950Z,73.04
2022-12-28T04:39:15.261Z,72.37
2022-12-28T04:40:18.719Z,72.70
2022-12-28T04:41:21.178Z,72.24
2022-12-28T04:42:25.399Z,71.67
2022-12-28T04:43:27.851Z,71.47
2022-12-28T04:44:32.407Z,71.41
2022-12-28T04:45:35.195Z,71.76
2022-12-28T04:46:39.076Z,71.02
2022-12-28T04:47:41.635Z,70.17
2022-12-28T04:48:46.558Z,70.77
2022-12-28T04:49:48.985Z,70.91
2022-12-28T04:50:52.783Z,70.89
2022-12-28T04:51:55.453Z,69.70
2022-12-28T04:53:00.494Z,70.42
2022-12-28T04:54:03.465Z,70.12
2022-12-28T04:55:07.381Z,69.40
2022-12-28T04:56:30.848Z,69.42
2022-12-28T04:57:33.481Z,68.59
2022-12-28T04:58:37.602Z,68.54
2022-12-28T04:59:40.636Z,68.30
2022-12-28T05:00:44.191Z,67.78
2022-12-28T05:01:46.818Z,67.40
2022-12-28T05:02:50.294Z,67.43
2022-12-28T05:03:58.063Z,68.25
2022-12-28T05:05:03.320Z,68.73
2022-12-28T05:06:08.403Z,68.96
2022-12-28T05:07:11.930Z,69.07
2022-12-28T05:08:14.307Z,69.56
2022-12-28T05:09:19.550Z,69.86
2022-12-28T05:10:22.245Z,69.55
2022-12-28T05:11:27.722Z,69.18
2022-12-28T05:12:30.095Z,69.34
2022-12-28T05:13:33.868Z,69.97
2022-12-28T05:14:37.384Z,70.00
2022-12-28T05:15:40.933Z,70.00
2022-12-28T05:16:43.494Z,69.15
2022-12-28T05:17:48.724Z,68.88
2022-12-28T05:18:51.255Z,69.35
2022-12-28T05:19:56.397Z,69.52
2022-12-28T05:21:00.662Z,69.19
2022-12-28T05:22:04.478Z,69.07
2022-12-28T05:23:07.263Z,68.73
2022-12-28T05:24:10.953Z,69.32
2022-12-28T05:25:13.293Z,69.25
2022-12-28T05:26:19.072Z,69.11
2022-12-28T05:27:21.509Z,69.95
2022-12-28T05:28:25.743Z,69.82
2022-12-28T05:29:28.220Z,70.20
2022-12-28T05:30:31.954Z,69.55
2022-12-28T05:31:34.367Z,70.34
2022-12-28T05:32:37.805Z,70.54
2022-12-28T05:33:40.498Z,70.79
2022-12-28T05:34:43.963Z,71.50
2022-12-28T05:35:47.870Z,71.17
2022-12-28T05:36:51.340Z,71.07
2022-12-28T05:37:53.690Z,71.21
2022-12-28T05:38:58.129Z,70.49
2022-12-28T05:40:01.836Z,70.53
2022-12-28T05:41:07.199Z,71.02
2022-12-28T05:42:09.612Z,71.08
2022-12-28T05:43:13.056Z,71.46
2022-12-28T05:44:16.777Z,71.24
2022-12-28T05:45:19.408Z,71.22
2022-12-28T05:46:25.629Z,70.93
2022-12-28T05:47:29.374Z,71.31
2022-12-28T05:48:33.010Z,71.34
2022-12-28T05:49:36.572Z,70.94
2022-12-28T05:50:39.178Z,70.38
2022-12-28T05:51:44.265Z,69.87
2022-12-28T05:52:47.129Z,69.34
2022-12-28T05:53:50.807Z,69.10
2022-12-28T05:54:53.355Z,69.07
2022-12-28T05:56:02.167Z,70.70
2022-12-28T05:57:05.989Z,70.33
2022-12-28T05:58:09.710Z,71.18
2022-12-28T05:59:14.575Z,70.68
2022-12-28T06:00:17.641Z,70.38
2022-12-28T06:01:25.331Z,70.14
2022-12-28T06:02:29.253Z,69.55
2022-12-28T06:03:31.964Z,69.52
2022-12-28T06:04:35.719Z,69.63
2022-12-28T06:05:38.046Z,70.41
2022-12-28T06:06:41.480Z,71.41
2022-12-28T06:07:45.265Z,70.94
2022-12-28T06:08:50.194Z,70.19
2022-12-28T06:09:53.521Z,69.21
2022-12-28T06:11:00.123Z,69.37
2022-12-28T06:12:04.914Z,70.13
2022-12-28T06:13:07.365Z,70.90
2022-12-28T06:14:11.101Z,70.27
2022-12-28T06:15:13.474Z,70.16
2022-12-28T06:16:18.907Z,69.72
2022-12-28T06:17:21.691Z,69.76
2022-12-28T06:18:25.457Z,69.74
2022-12-28T06:19:28.141Z,69.67
2022-12-28T06:20:31.717Z,69.52
2022-12-28T06:21:36.104Z,69.40
2022-12-28T06:22:39.605Z,70.19
2022-12-28T06:23:44.097Z,70.09
2022-12-28T06:24:47.596Z,70.39
2022-12-28T06:25:49.962Z,70.28
2022-12-28T06:26:53.449Z,70.80
2022-12-28T06:27:55.737Z,70.36
2022-12-28T06:28:59.516Z,69.85
2022-12-28T06:30:01.868Z,69.49
2022-12-28T06:31:06.828Z,69.22
2022-12-28T06:32:10.391Z,68.69
2022-12-28T06:33:13.191Z,68.89
2022-12-28T06:34:16.628Z,68.26
2022-12-28T06:35:19.359Z,68.38
2022-12-28T06:36:25.216Z,68.23
2022-12-28T06:37:27.672Z,68.05
2022-12-28T06:38:34.666Z,68.64
2022-12-28T06:39:38.413Z,68.85
2022-12-28T06:41:12.439Z,68.55
2022-12-28T06:42:06.004Z,68.86
2022-12-28T06:43:08.488Z,70.31
2022-12-28T06:44:14.246Z,69.70
2022-12-28T06:45:16.941Z,69.97
2022-12-28T06:46:22.667Z,69.99
2022-12-28T06:47:26.221Z,70.49
2022-12-28T06:48:30.357Z,69.97
2022-12-28T06:49:33.985Z,70.21
2022-12-28T06:50:40.082Z,70.50
2022-12-28T06:51:43.682Z,70.63
2022-12-28T06:52:46.238Z,70.84
2022-12-28T06:53:51.183Z,71.60
2022-12-28T06:54:55.071Z,71.85
2022-12-28T06:55:59.921Z,71.44
2022-12-28T06:57:02.351Z,71.91
2022-12-28T06:58:05.962Z,72.28
2022-12-28T06:59:08.593Z,72.43
2022-12-28T07:00:13.548Z,72.24
2022-12-28T07:01:18.158Z,71.90
2022-12-28T07:02:22.123Z,71.53
2022-12-28T07:03:25.421Z,71.41
2022-12-28T07:04:28.922Z,72.27
2022-12-28T07:05:32.301Z,71.75
2022-12-28T07:06:38.569Z,70.70
2022-12-28T07:07:40.939Z,70.80
2022-12-28T07:08:44.872Z,71.34
2022-12-28T07:09:48.335Z,71.17
2022-12-28T07:10:52.408Z,71.24
2022-12-28T07:11:55.830Z,71.44
2022-12-28T07:12:58.130Z,72.10
2022-12-28T07:14:01.640Z,71.37
2022-12-28T07:15:04.435Z,72.12
2022-12-28T07:16:11.305Z,71.24
2022-12-28T07:17:14.806Z,71.87
2022-12-28T07:18:17.193Z,72.14
2022-12-28T07:19:20.809Z,71.98
2022-12-28T07:20:23.554Z,71.66
2022-12-28T07:21:28.373Z,71.09
2022-12-28T07:22:30.878Z,71.83
2022-12-28T07:23:34.924Z,71.99
2022-12-28T07:24:39.446Z,71.66
2022-12-28T07:25:41.820Z,71.23
2022-12-28T07:26:46.596Z,71.57
2022-12-28T07:27:49.001Z,72.27
2022-12-28T07:28:54.730Z,72.47
2022-12-28T07:29:58.117Z,72.61
2022-12-28T07:31:06.082Z,72.71
2022-12-28T07:32:09.830Z,72.27
2022-12-28T07:33:12.346Z,72.85
2022-12-28T07:34:17.508Z,71.88
2022-12-28T07:35:19.855Z,71.26
2022-12-28T07:36:25.027Z,71.59
2022-12-28T07:37:28.552Z,72.23
2022-12-28T07:38:31.148Z,72.17
2022-12-28T07:39:35.325Z,73.07
2022-12-28T07:40:37.869Z,72.57
2022-12-28T07:41:41.280Z,72.32
2022-12-28T07:42:45.207Z,71.96
2022-12-28T07:43:49.323Z,72.82
2022-12-28T07:44:52.746Z,73.22
2022-12-28T07:46:01.924Z,72.54
2022-12-28T07:47:05.786Z,72.94
2022-12-28T07:48:08.192Z,73.16
2022-12-28T07:49:11.523Z,72.89
2022-12-28T07:50:13.863Z,72.71
2022-12-28T07:51:19.389Z,72.86
2022-12-28T07:52:23.012Z,72.56
2022-12-28T07:53:25.416Z,72.05
2022-12-28T07:54:28.909Z,72.42
2022-12-28T07:55:32.354Z,73.59
2022-12-28T07:57:37.970Z,72.92
2022-12-28T07:59:44.601Z,72.14
2022-12-28T08:00:48.028Z,72.05
2022-12-28T08:01:52.869Z,72.12
2022-12-28T08:02:56.407Z,71.59
2022-12-28T08:04:02.055Z,72.07
2022-12-28T08:05:05.038Z,71.55
2022-12-28T08:06:11.263Z,71.59
2022-12-28T08:07:14.706Z,71.31
2022-12-28T08:08:17.076Z,70.98
2022-12-28T08:09:20.456Z,71.11
2022-12-28T08:10:22.862Z,71.44
2022-12-28T08:11:27.797Z,71.39
2022-12-28T08:12:31.514Z,70.48
2022-12-28T08:13:35.650Z,69.80
2022-12-28T08:14:40.581Z,69.47
2022-12-28T08:15:43.175Z,69.25
2022-12-28T08:16:46.612Z,69.23
2022-12-28T08:17:48.930Z,69.40
2022-12-28T08:18:53.077Z,69.72
2022-12-28T08:19:55.727Z,70.25
2022-12-28T08:21:03.001Z,69.72
2022-12-28T08:22:06.722Z,68.44
2022-12-28T08:23:09.115Z,67.80
2022-12-28T08:24:15.574Z,67.82
2022-12-28T08:25:17.998Z,67.70
2022-12-28T08:26:24.928Z,67.00
2022-12-28T08:27:32.240Z,66.70
2022-12-28T08:28:38.461Z,66.62
2022-12-28T08:29:43.130Z,66.82
2022-12-28T08:30:45.480Z,66.23
2022-12-28T08:31:49.766Z,66.78
2022-12-28T08:32:52.146Z,66.53
2022-12-28T08:33:57.528Z,66.30
2022-12-28T08:34:59.842Z,65.99
2022-12-28T08:36:03.524Z,65.88
2022-12-28T08:37:07.162Z,66.48
2022-12-28T08:38:09.953Z,66.14
2022-12-28T08:39:14.710Z,66.32
2022-12-28T08:40:17.155Z,66.88
2022-12-28T08:41:22.614Z,67.01
2022-12-28T08:42:24.916Z,66.01
2022-12-28T08:43:29.310Z,65.08
2022-12-28T08:44:32.736Z,65.03
2022-12-28T08:45:36.628Z,65.28
2022-12-28T08:46:41.303Z,64.97
2022-12-28T08:47:43.726Z,64.07
2022-12-28T08:48:48.809Z,64.63
2022-12-28T08:49:52.200Z,64.21
2022-12-28T08:50:55.407Z,64.55
2022-12-28T08:51:59.298Z,65.58
2022-12-28T08:53:01.573Z,65.08
2022-12-28T08:54:05.352Z,64.00
2022-12-28T08:55:09.617Z,63.74
2022-12-28T08:56:14.083Z,63.48
2022-12-28T08:57:17.833Z,63.91
2022-12-28T08:58:20.233Z,63.92
2022-12-28T08:59:23.452Z,63.93
2022-12-28T09:00:25.921Z,63.82
2022-12-28T09:01:35.889Z,63.95
2022-12-28T09:02:42.911Z,63.96
2022-12-28T09:03:50.289Z,64.53
2022-12-28T09:04:53.760Z,65.62
2022-12-28T09:05:56.051Z,65.53
2022-12-28T09:06:59.396Z,65.79
2022-12-28T09:08:01.786Z,66.36
2022-12-28T09:09:07.428Z,66.15
2022-12-28T09:10:11.224Z,65.49
2022-12-28T09:11:14.283Z,65.79
2022-12-28T09:12:17.954Z,65.54
2022-12-28T09:13:20.437Z,65.77
2022-12-28T09:14:24.717Z,66.28
2022-12-28T09:15:27.507Z,66.92
2022-12-28T09:16:32.641Z,67.04
2022-12-28T09:17:35.225Z,67.23
2022-12-28T09:18:39.663Z,66.91
2022-12-28T09:19:43.203Z,66.68
2022-12-28T09:20:48.026Z,67.13
2022-12-28T09:21:54.015Z,66.65
2022-12-28T09:22:56.317Z,66.92
2022-12-28T09:24:00.137Z,66.44
2022-12-28T09:25:03.477Z,65.94
2022-12-28T09:26:09.106Z,66.05
2022-12-28T09:27:12.830Z,65.91
2022-12-28T09:28:15.477Z,65.79
2022-12-28T09:29:18.924Z,65.95
2022-12-28T09:30:22.491Z,65.93
2022-12-28T09:31:26.966Z,66.34
2022-12-28T09:32:32.143Z,66.15
2022-12-28T09:34:33.843Z,66.25
2022-12-28T09:35:17.224Z,65.08
2022-12-28T09:36:19.679Z,64.05
2022-12-28T09:37:23.127Z,63.97
2022-12-28T09:38:25.904Z,63.89
2022-12-28T09:39:30.087Z,63.13
2022-12-28T09:40:34.951Z,63.15
2022-12-28T09:41:43.713Z,61.88
2022-12-28T09:42:46.106Z,62.86
2022-12-28T09:43:50.815Z,62.92
2022-12-28T09:45:00.641Z,61.72
2022-12-28T09:46:03.591Z,61.36
2022-12-28T09:47:17.531Z,61.05
2022-12-28T09:48:26.818Z,60.59
2022-12-28T09:49:40.002Z,60.41
2022-12-28T09:50:45.296Z,60.35
2022-12-28T09:51:53.292Z,60.09
2022-12-28T09:53:12.775Z,60.73
2022-12-28T09:54:16.151Z,60.73
2022-12-28T09:55:20.852Z,60.54
2022-12-28T09:56:28.913Z,61.08
2022-12-28T09:57:39.017Z,61.31
2022-12-28T09:58:47.915Z,60.98
2022-12-28T09:59:54.755Z,61.03
2022-12-28T10:01:00.531Z,61.17
2022-12-28T10:02:05.966Z,61.53
2022-12-28T10:03:17.076Z,61.66
2022-12-28T10:04:21.952Z,60.81
2022-12-28T10:05:28.083Z,61.47
2022-12-28T10:06:36.963Z,62.07
2022-12-28T10:07:39.472Z,61.56
2022-12-28T10:08:46.502Z,61.42
2022-12-28T10:09:50.133Z,61.00
2022-12-28T10:10:54.269Z,61.02
2022-12-28T10:11:57.788Z,60.70
2022-12-28T10:13:45.573Z,59.18
2022-12-28T10:14:38.515Z,59.94
2022-12-28T10:15:41.345Z,59.13
2022-12-28T10:16:48.621Z,58.30
2022-12-28T10:17:51.631Z,58.67
2022-12-28T10:18:55.668Z,58.88
2022-12-28T10:20:00.977Z,58.65
2022-12-28T10:21:03.381Z,58.94
2022-12-28T10:22:09.801Z,58.17
2022-12-28T10:23:18.084Z,58.10
2022-12-28T10:24:31.397Z,57.86
2022-12-28T10:25:35.069Z,57.75
2022-12-28T10:26:39.525Z,56.69
2022-12-28T10:27:42.997Z,56.40
2022-12-28T10:28:49.568Z,55.96
2022-12-28T10:29:52.907Z,56.24
2022-12-28T10:31:06.571Z,55.81
2022-12-28T10:32:12.723Z,56.82
2022-12-28T10:33:20.970Z,56.53
2022-12-28T10:34:24.559Z,56.23
2022-12-28T10:35:33.338Z,56.24
2022-12-28T10:36:36.768Z,57.23
2022-12-28T10:37:44.910Z,57.21
2022-12-28T10:38:53.418Z,57.44
2022-12-28T10:39:59.100Z,57.91
2022-12-28T10:41:05.254Z,57.19
2022-12-28T10:42:22.944Z,57.78
2022-12-28T10:43:30.493Z,57.74
2022-12-28T10:44:40.440Z,59.69
2022-12-28T10:46:01.219Z,59.16
2022-12-28T10:47:06.848Z,59.19
2022-12-28T10:48:16.441Z,58.81
2022-12-28T10:49:21.721Z,59.19
2022-12-28T10:50:57.827Z,59.12
2022-12-28T10:52:03.712Z,57.79
2022-12-28T10:53:16.864Z,58.25
2022-12-28T10:54:27.676Z,59.33
2022-12-28T10:55:34.224Z,59.54
2022-12-28T10:56:49.632Z,60.79
2022-12-28T10:58:27.512Z,61.67
2022-12-28T10:59:25.638Z,61.04
2022-12-28T11:00:29.378Z,61.49
2022-12-28T11:01:33.639Z,61.53
2022-12-28T11:02:36.608Z,62.55
2022-12-28T11:03:42.785Z,62.32
2022-12-28T11:04:54.116Z,61.84
2022-12-28T11:06:13.269Z,62.53
2022-12-28T11:07:29.022Z,60.83
2022-12-28T11:08:31.564Z,61.08
2022-12-28T11:09:36.704Z,61.84
2022-12-28T11:10:40.535Z,61.53
2022-12-28T11:11:45.680Z,61.56
2022-12-28T11:12:49.030Z,61.85
2022-12-28T11:13:57.070Z,62.42
2022-12-28T11:15:00.079Z,62.58
2022-12-28T11:16:08.052Z,63.08
2022-12-28T11:17:18.668Z,64.01
2022-12-28T11:18:21.677Z,63.65
2022-12-28T11:19:26.912Z,63.90
2022-12-28T11:20:34.279Z,63.41
2022-12-28T11:21:39.903Z,63.68
2022-12-28T11:22:42.410Z,64.27
2022-12-28T11:23:47.826Z,65.38
2022-12-28T11:24:50.711Z,65.08
2022-12-28T11:25:54.219Z,65.57
2022-12-28T11:26:58.960Z,64.88
2022-12-28T11:28:05.590Z,66.08
2022-12-28T11:29:12.206Z,66.17
2022-12-28T11:30:18.121Z,65.47
2022-12-28T11:31:29.193Z,65.32
2022-12-28T11:32:36.660Z,66.05
2022-12-28T11:33:43.390Z,66.53
2022-12-28T11:34:46.081Z,66.92
2022-12-28T11:35:52.557Z,67.27
2022-12-28T11:37:00.640Z,67.49
2022-12-28T11:38:05.788Z,67.59
2022-12-28T11:39:47.226Z,67.86
2022-12-28T11:40:52.467Z,68.32
2022-12-28T11:42:36.679Z,68.42
2022-12-28T11:43:40.323Z,69.16
2022-12-28T11:44:52.064Z,68.92
2022-12-28T11:45:56.274Z,68.94
2022-12-28T11:47:05.382Z,68.90
2022-12-28T11:48:42.182Z,69.41
2022-12-28T11:49:47.388Z,69.62
2022-12-28T11:50:52.183Z,68.64
2022-12-28T11:52:46.732Z,68.50
2022-12-28T11:54:00.100Z,69.08
2022-12-28T11:55:25.273Z,69.08
2022-12-28T11:56:50.506Z,69.40
2022-12-28T11:57:55.263Z,69.00
2022-12-28T11:59:23.598Z,68.54
2022-12-28T12:00:48.334Z,68.51
2022-12-28T12:01:54.142Z,67.93
2022-12-28T12:02:58.530Z,68.19
2022-12-28T12:04:39.189Z,69.15
2022-12-28T12:05:49.464Z,68.99
2022-12-28T12:07:15.913Z,69.68
2022-12-28T12:08:43.064Z,69.28
2022-12-28T12:09:49.047Z,69.72
2022-12-28T12:11:23.279Z,69.69
2022-12-28T12:12:37.507Z,69.58
2022-12-28T12:13:45.667Z,69.25
2022-12-28T12:14:50.908Z,69.59
2022-12-28T12:15:59.270Z,70.17
2022-12-28T12:17:05.824Z,70.26
2022-12-28T12:18:19.481Z,70.69
2022-12-28T12:19:27.058Z,70.91
2022-12-28T12:20:45.019Z,69.82
2022-12-28T12:22:00.381Z,68.83
2022-12-28T12:23:07.715Z,69.33
2022-12-28T12:24:26.812Z,68.50
2022-12-28T12:25:37.658Z,69.47
2022-12-28T12:26:47.716Z,69.07
2022-12-28T12:27:55.690Z,69.39
2022-12-28T12:29:05.422Z,68.80
2022-12-28T12:30:15.934Z,68.44
2022-12-28T12:31:29.856Z,68.07
2022-12-28T12:32:40.148Z,67.37
2022-12-28T12:33:48.755Z,68.62
2022-12-28T12:34:55.454Z,68.69
2022-12-28T12:36:06.286Z,68.52
2022-12-28T12:37:38.581Z,69.90
2022-12-28T12:38:58.309Z,69.29
2022-12-28T12:40:34.397Z,68.81
2022-12-28T12:41:50.659Z,68.78
2022-12-28T12:43:13.311Z,70.99
2022-12-28T12:44:24.259Z,70.34
2022-12-28T12:45:40.154Z,69.78
2022-12-28T12:47:09.970Z,69.25
2022-12-28T12:48:29.950Z,70.21
2022-12-28T12:49:57.365Z,70.23
2022-12-28T12:51:10.466Z,70.12
2022-12-28T12:52:27.396Z,70.26
2022-12-28T12:53:48.651Z,70.63
2022-12-28T12:55:06.250Z,69.40
2022-12-28T12:56:20.379Z,69.55
2022-12-28T12:57:36.720Z,69.33
2022-12-28T12:58:52.795Z,68.14
2022-12-28T13:00:15.074Z,69.04
2022-12-28T13:01:30.993Z,67.98
2022-12-28T13:02:59.899Z,67.57
2022-12-28T13:04:08.915Z,67.60
2022-12-28T13:05:17.574Z,68.66
2022-12-28T13:06:24.631Z,68.68
2022-12-28T13:07:28.565Z,69.21
2022-12-28T13:08:38.580Z,70.07
2022-12-28T13:09:43.673Z,69.98
2022-12-28T13:10:47.106Z,69.85
2022-12-28T13:11:51.071Z,70.58
2022-12-28T13:12:59.388Z,70.25
2022-12-28T13:14:02.943Z,70.27
2022-12-28T13:15:12.477Z,69.82
2022-12-28T13:16:19.080Z,69.88
2022-12-28T13:17:23.282Z,69.70
2022-12-28T13:19:50.686Z,69.03
2022-12-28T13:20:55.102Z,69.00
2022-12-28T13:21:59.322Z,70.34
2022-12-28T13:23:01.976Z,69.90
2022-12-28T13:24:06.138Z,69.66
2022-12-28T13:25:24.226Z,69.79
2022-12-28T13:26:30.565Z,69.75
2022-12-28T13:27:37.029Z,68.88
2022-12-28T13:28:51.471Z,67.64
2022-12-28T13:29:55.502Z,68.33
2022-12-28T13:31:11.103Z,68.09
2022-12-28T13:32:26.437Z,67.25
2022-12-28T13:33:30.760Z,66.64
2022-12-28T13:34:36.170Z,67.68
2022-12-28T13:35:38.972Z,68.50
2022-12-28T13:36:49.786Z,68.60
2022-12-28T13:38:04.130Z,68.88
2022-12-28T13:39:13.513Z,68.75
2022-12-28T13:40:19.297Z,69.68
2022-12-28T13:41:26.385Z,69.70
2022-12-28T13:42:36.763Z,69.47
2022-12-28T13:44:09.503Z,69.04
2022-12-28T13:45:16.764Z,69.26
2022-12-28T13:46:21.743Z,70.17
2022-12-28T13:47:29.437Z,68.94
2022-12-28T13:48:32.295Z,69.22
2022-12-28T13:49:40.652Z,69.02
2022-12-28T13:50:44.474Z,68.73
2022-12-28T13:51:53.080Z,69.64
2022-12-28T13:53:00.993Z,69.88
2022-12-28T13:54:03.880Z,70.59
2022-12-28T13:55:12.170Z,71.80
2022-12-28T13:56:18.144Z,71.68
2022-12-28T13:58:52.394Z,71.96
2022-12-28T13:59:57.388Z,71.64
2022-12-28T14:01:02.305Z,71.75
2022-12-28T14:02:06.489Z,71.79
2022-12-28T14:03:12.845Z,71.61
2022-12-28T14:04:51.670Z,72.27
2022-12-28T14:05:45.162Z,72.00
2022-12-28T14:06:47.857Z,71.49
2022-12-28T14:07:53.638Z,71.22
2022-12-28T14:09:02.248Z,71.73
2022-12-28T14:10:11.721Z,71.50
2022-12-28T14:11:14.641Z,71.87
2022-12-28T14:12:19.164Z,71.85
2022-12-28T14:13:22.287Z,72.50
2022-12-28T14:14:27.744Z,73.67
2022-12-28T14:15:39.002Z,75.04
2022-12-28T14:16:45.018Z,75.25
2022-12-28T14:17:49.644Z,74.50
2022-12-28T14:18:52.736Z,74.29
2022-12-28T14:19:58.667Z,74.71
2022-12-28T14:21:04.198Z,73.90
2022-12-28T14:22:31.698Z,72.85
2022-12-28T14:23:35.791Z,72.74
2022-12-28T14:25:03.642Z,72.49
2022-12-28T14:26:09.760Z,73.53
2022-12-28T14:27:18.124Z,75.19
2022-12-28T14:28:29.045Z,75.40
2022-12-28T14:29:36.050Z,75.08
2022-12-28T14:30:41.981Z,74.75
2022-12-28T14:31:46.020Z,74.59